Time;durP1;ratioP1;P1;durP2;ratioP2;P2;SDS_P1;SDS_P2;PMS_P1;PMS_P2;Temp;Humidity;BMP_temperature;BMP_pressure;BME280_temperature;BME280_humidity;BME280_pressure;Samples;Min_cycle;Max_cycle;Signal;HPM_P1;HPM_P2
2022/09/08 00:01:58;;;;;;;10.33;4.23;;;;;;;21.23;62.97;100891.63;4940825;28;120920;-81
2022/09/08 00:04:24;;;;;;;10.27;4.23;;;;;;;21.26;62.81;100892.63;4929144;28;123179;-82
2022/09/08 00:06:49;;;;;;;12.77;4.50;;;;;;;21.20;62.35;100889.88;4924975;28;123214;-82
2022/09/08 00:09:15;;;;;;;10.75;4.43;;;;;;;21.20;62.71;100898.25;4934889;28;120299;-82
2022/09/08 00:11:40;;;;;;;10.25;4.32;;;;;;;21.19;62.91;100895.97;4930310;28;122951;-82
2022/09/08 00:14:08;;;;;;;10.70;4.40;;;;;;;21.20;62.82;100889.13;4946586;28;119903;-82
2022/09/08 00:16:34;;;;;;;8.95;4.57;;;;;;;21.21;63.08;100894.19;4921377;28;119655;-81
2022/09/08 00:18:59;;;;;;;9.10;4.20;;;;;;;21.20;62.81;100886.31;4930112;28;122695;-81
2022/09/08 00:21:27;;;;;;;10.03;4.30;;;;;;;21.19;62.65;100887.59;4948966;28;120126;-81
2022/09/08 00:23:52;;;;;;;8.98;4.18;;;;;;;21.08;63.07;100883.63;4911418;28;122465;-82
2022/09/08 00:26:19;;;;;;;11.60;4.05;;;;;;;21.18;62.62;100886.84;4931003;28;123249;-82
2022/09/08 00:29:05;;;;;;;8.10;3.92;;;;;;;21.11;62.95;100879.81;4924263;28;120461;-81
2022/09/08 00:31:31;;;;;;;9.33;4.30;;;;;;;21.10;62.49;100880.34;4950882;28;121880;-82
2022/09/08 00:33:57;;;;;;;9.63;4.30;;;;;;;21.06;62.99;100877.81;4916291;28;120078;-82
2022/09/08 00:36:22;;;;;;;10.17;4.10;;;;;;;21.02;62.68;100876.56;4947568;28;119956;-81
2022/09/08 00:38:51;;;;;;;10.23;4.07;;;;;;;20.98;62.54;100865.69;4947014;28;122959;-82
2022/09/08 00:41:18;;;;;;;9.77;3.77;;;;;;;20.99;62.80;100866.44;4900687;28;120088;-81
2022/09/08 00:43:46;;;;;;;11.35;4.28;;;;;;;20.96;62.77;100862.66;4928970;28;120453;-81
2022/09/08 00:46:35;;;;;;;12.03;3.90;;;;;;;20.87;62.94;100860.22;4932918;28;123712;-81
2022/09/08 00:49:10;;;;;;;10.57;4.00;;;;;;;20.91;63.01;100863.47;4920944;28;120094;-81
2022/09/08 00:51:39;;;;;;;8.57;3.90;;;;;;;20.89;62.95;100854.13;4947893;28;119923;-81
2022/09/08 00:54:05;;;;;;;9.33;3.90;;;;;;;20.84;62.69;100850.84;4952358;28;120024;-81
2022/09/08 00:56:32;;;;;;;8.85;4.28;;;;;;;20.88;63.21;100856.16;4933945;28;120669;-81
2022/09/08 00:59:00;;;;;;;13.38;4.50;;;;;;;20.87;63.09;100856.69;4930660;28;123046;-80
2022/09/08 01:01:25;;;;;;;11.55;4.45;;;;;;;20.88;63.21;100860.97;4937131;28;120351;-80
2022/09/08 01:03:52;;;;;;;12.82;4.20;;;;;;;20.81;62.85;100851.13;4947433;28;121742;-80
2022/09/08 01:12:43;;;;;;;10.75;4.00;;;;;;;20.92;62.65;100865.00;4936605;28;123636;-81
2022/09/08 01:12:44;;;;;;;10.40;4.30;;;;;;;20.79;62.93;100856.44;4926057;28;120775;-80
2022/09/08 01:15:14;;;;;;;9.27;4.40;;;;;;;20.82;63.38;100861.78;4949859;28;120396;-81
2022/09/08 01:17:40;;;;;;;12.70;4.30;;;;;;;20.80;63.44;100860.75;4914531;28;120219;-81
2022/09/08 01:20:07;;;;;;;9.70;4.30;;;;;;;20.86;63.47;100852.38;4915165;28;123920;-81
2022/09/08 01:22:52;;;;;;;9.07;4.38;;;;;;;20.87;63.36;100851.09;4930577;28;120107;-80
2022/09/08 01:26:02;;;;;;;10.67;4.37;;;;;;;20.88;63.67;100849.81;4930725;28;120361;-80
2022/09/08 01:28:46;;;;;;;9.90;4.90;;;;;;;20.90;63.41;100852.84;4905217;28;122086;-81
2022/09/08 01:31:12;;;;;;;11.15;4.60;;;;;;;20.89;63.06;100840.19;4946625;28;119901;-80
2022/09/08 01:33:39;;;;;;;9.82;4.53;;;;;;;20.86;63.24;100841.97;4947148;28;122036;-80
2022/09/08 01:36:10;;;;;;;11.40;4.53;;;;;;;20.88;63.44;100839.44;4930528;28;120843;-82
2022/09/08 01:38:36;;;;;;;9.90;4.60;;;;;;;20.82;63.33;100831.09;4933076;28;119786;-81
2022/09/08 01:41:01;;;;;;;9.80;4.20;;;;;;;20.88;62.95;100842.22;4943092;28;124286;-81
2022/09/08 01:43:27;;;;;;;10.03;4.57;;;;;;;20.86;63.47;100839.19;4923860;28;120097;-81
2022/09/08 01:45:55;;;;;;;10.40;4.30;;;;;;;20.89;63.66;100840.94;4927517;28;122733;-81
2022/09/08 01:48:21;;;;;;;12.82;4.38;;;;;;;20.88;63.79;100827.53;4929358;28;121447;-81
2022/09/08 01:50:47;;;;;;;10.98;4.45;;;;;;;20.84;63.67;100827.81;4914238;28;119715;-81
2022/09/08 01:53:12;;;;;;;13.60;4.43;;;;;;;20.83;63.59;100831.88;4930459;28;119886;-81
2022/09/08 01:55:38;;;;;;;12.43;4.63;;;;;;;20.81;64.03;100824.00;4908803;28;123280;-82
2022/09/08 01:58:04;;;;;;;11.17;4.57;;;;;;;20.78;63.99;100816.66;4939431;28;119932;-81
2022/09/08 02:00:29;;;;;;;10.67;4.27;;;;;;;20.80;63.93;100816.91;4932407;28;120368;-81
2022/09/08 02:03:04;;;;;;;11.45;4.40;;;;;;;20.83;64.30;100821.47;4913323;28;119629;-81
2022/09/08 02:05:29;;;;;;;9.20;4.10;;;;;;;20.80;64.29;100819.69;4928692;28;123241;-82
2022/09/08 02:07:55;;;;;;;9.40;3.87;;;;;;;20.80;64.51;100822.47;4907783;28;124237;-81
2022/09/08 02:10:20;;;;;;;11.90;3.90;;;;;;;20.84;64.57;100825.00;4926550;28;119891;-81
2022/09/08 02:12:46;;;;;;;14.07;4.35;;;;;;;20.86;64.23;100818.91;4911132;28;123016;-81
2022/09/08 02:15:11;;;;;;;9.65;4.20;;;;;;;20.79;64.13;100809.81;4945967;28;120734;-80
2022/09/08 02:17:37;;;;;;;11.67;4.53;;;;;;;20.75;64.25;100806.56;4929494;28;119839;-81
2022/09/08 02:20:22;;;;;;;10.20;3.90;;;;;;;20.76;64.54;100805.28;4924887;28;120488;-82
2022/09/08 02:23:06;;;;;;;12.98;4.00;;;;;;;20.82;64.28;100814.38;4914058;28;123405;-82
2022/09/08 02:25:50;;;;;;;10.70;4.20;;;;;;;20.75;64.27;100803.78;4925005;28;120236;-82
2022/09/08 02:28:18;;;;;;;13.48;4.75;;;;;;;20.81;64.13;100810.06;4944513;28;121542;-82
2022/09/08 02:30:44;;;;;;;12.77;4.30;;;;;;;20.80;64.27;100808.53;4946219;28;120672;-82
2022/09/08 02:33:10;;;;;;;10.70;4.10;;;;;;;20.79;63.93;100797.91;4948469;28;119756;-82
2022/09/08 02:35:36;;;;;;;13.07;4.37;;;;;;;20.82;64.09;100794.88;4930054;28;123535;-81
2022/09/08 02:38:01;;;;;;;13.00;4.43;;;;;;;20.86;64.30;100800.16;4930679;28;120632;-82
2022/09/08 02:40:27;;;;;;;10.03;4.03;;;;;;;20.83;64.24;100792.84;4930500;28;120889;-82
2022/09/08 02:42:53;;;;;;;8.77;3.88;;;;;;;20.86;64.46;100796.63;4925688;28;121272;-82
2022/09/08 02:45:18;;;;;;;10.68;4.10;;;;;;;20.84;64.31;100799.91;4930278;28;119813;-82
2022/09/08 02:47:47;;;;;;;11.07;4.30;;;;;;;20.89;64.14;100806.72;4948357;28;120788;-82
2022/09/08 02:50:12;;;;;;;11.03;4.30;;;;;;;20.88;64.44;100796.84;4934554;28;119846;-82
2022/09/08 02:52:38;;;;;;;9.70;3.97;;;;;;;20.87;64.15;100801.66;4949239;28;121786;-82
2022/09/08 02:55:05;;;;;;;11.95;4.10;;;;;;;20.90;64.45;100802.66;4950633;28;122729;-82
2022/09/08 02:57:30;;;;;;;10.10;3.97;;;;;;;20.87;64.41;100795.34;4937753;28;120560;-82
2022/09/08 02:59:56;;;;;;;12.70;4.40;;;;;;;20.89;64.23;100793.53;4946041;28;122017;-82
2022/09/08 03:02:21;;;;;;;13.27;4.10;;;;;;;20.96;64.20;100786.63;4928945;28;124032;-82
2022/09/08 03:04:47;;;;;;;11.23;4.57;;;;;;;20.92;64.24;100777.81;4959815;28;120565;-82
2022/09/08 03:07:13;;;;;;;9.40;3.80;;;;;;;20.95;64.14;100787.91;4925719;28;121818;-82
2022/09/08 03:09:38;;;;;;;9.32;4.03;;;;;;;20.95;64.12;100782.34;4919898;28;120281;-82
2022/09/08 03:12:04;;;;;;;11.20;4.10;;;;;;;20.91;64.08;100773.50;4925401;28;122153;-81
2022/09/08 03:14:29;;;;;;;8.40;3.80;;;;;;;20.99;63.78;100777.22;4912198;28;123495;-81
2022/09/08 03:16:56;;;;;;;10.03;4.10;;;;;;;20.93;63.71;100774.50;4946476;28;120052;-81
2022/09/08 03:19:21;;;;;;;10.27;3.90;;;;;;;20.90;64.04;100772.00;4924883;28;120390;-80
2022/09/08 03:21:47;;;;;;;8.57;4.10;;;;;;;20.94;64.03;100781.56;4957085;28;120627;-81
2022/09/08 03:24:13;;;;;;;9.67;4.27;;;;;;;20.93;63.67;100784.88;4894024;28;120411;-81
2022/09/08 03:26:39;;;;;;;9.48;4.40;;;;;;;20.87;64.00;100768.22;4930930;28;120423;-82
2022/09/08 03:29:06;;;;;;;10.50;4.00;;;;;;;20.88;64.03;100771.75;4925185;28;121318;-82
2022/09/08 03:31:35;;;;;;;10.77;4.07;;;;;;;20.91;63.83;100770.72;4911830;28;120211;-82
2022/09/08 03:34:01;;;;;;;10.45;4.20;;;;;;;20.98;64.11;100775.72;4949152;28;120161;-82
2022/09/08 03:36:26;;;;;;;11.30;4.17;;;;;;;20.92;63.77;100766.66;4919791;28;120063;-81
2022/09/08 03:38:52;;;;;;;12.13;4.10;;;;;;;20.96;64.01;100767.13;4929247;28;122032;-82
2022/09/08 03:41:18;;;;;;;11.32;3.60;;;;;;;21.00;63.75;100768.34;4939181;28;120085;-82
2022/09/08 03:43:46;;;;;;;10.57;3.97;;;;;;;20.95;63.52;100763.56;4916564;28;119889;-81
2022/09/08 03:46:12;;;;;;;9.95;4.05;;;;;;;20.96;63.63;100767.13;4926981;28;119964;-82
2022/09/08 03:48:38;;;;;;;10.60;3.83;;;;;;;20.98;63.73;100753.41;4897703;28;122876;-82
2022/09/08 03:51:22;;;;;;;8.00;3.70;;;;;;;20.99;63.47;100757.69;4935238;28;122628;-81
2022/09/08 03:53:48;;;;;;;13.02;3.92;;;;;;;20.87;63.23;100745.91;4932441;28;121981;-83
2022/09/08 03:56:14;;;;;;;8.93;4.00;;;;;;;20.94;63.51;100755.72;4913408;28;120285;-83
2022/09/08 03:58:41;;;;;;;11.67;4.43;;;;;;;20.90;63.59;100758.06;4928694;28;120104;-82
2022/09/08 04:01:16;;;;;;;9.85;4.03;;;;;;;20.96;63.89;100758.75;4951597;28;120072;-82
2022/09/08 04:03:42;;;;;;;12.13;3.80;;;;;;;20.95;63.17;100760.78;4928509;28;120284;-82
2022/09/08 04:06:08;;;;;;;7.35;4.00;;;;;;;20.89;63.28;100754.50;4927421;28;122032;-82
2022/09/08 04:08:34;;;;;;;9.88;4.10;;;;;;;20.86;63.54;100746.44;4945504;28;120308;-82
2022/09/08 04:11:00;;;;;;;11.82;4.35;;;;;;;20.89;63.62;100750.97;4919606;28;120138;-82
2022/09/08 04:13:26;;;;;;;7.32;3.88;;;;;;;20.84;63.36;100756.06;4914088;28;123502;-82
2022/09/08 04:15:52;;;;;;;12.25;4.50;;;;;;;20.79;63.70;100747.75;4923177;28;119675;-82
2022/09/08 04:18:17;;;;;;;10.85;4.30;;;;;;;20.79;63.19;100750.53;4937727;28;120505;-83
2022/09/08 04:20:43;;;;;;;11.90;4.50;;;;;;;20.76;63.49;100748.78;4946846;28;120360;-82
2022/09/08 04:23:10;;;;;;;9.77;4.33;;;;;;;20.74;63.23;100757.66;4897826;28;120438;-82
2022/09/08 04:25:36;;;;;;;11.13;4.50;;;;;;;20.68;63.49;100748.59;4912708;28;122265;-83
2022/09/08 04:28:29;;;;;;;9.82;4.28;;;;;;;20.76;63.47;100759.94;4908626;28;121923;-83
2022/09/08 04:30:55;;;;;;;9.10;4.20;;;;;;;20.70;63.75;100748.06;4923529;28;120100;-83
2022/09/08 04:33:21;;;;;;;11.15;4.60;;;;;;;20.69;63.85;100741.00;4935201;28;120168;-83
2022/09/08 04:35:47;;;;;;;10.60;4.57;;;;;;;20.68;63.57;100737.44;4899179;28;119946;-83
2022/09/08 04:38:13;;;;;;;11.03;4.30;;;;;;;20.72;63.30;100748.31;4953942;28;119799;-82
2022/09/08 04:40:40;;;;;;;10.13;4.37;;;;;;;20.67;63.36;100741.50;4914556;28;122930;-81
2022/09/08 04:43:05;;;;;;;10.73;4.37;;;;;;;20.77;63.66;100744.72;4941468;28;121510;-81
2022/09/08 04:45:31;;;;;;;8.97;4.60;;;;;;;20.73;63.72;100731.06;4945014;28;121309;-81
2022/09/08 04:47:56;;;;;;;10.23;4.40;;;;;;;20.78;63.56;100746.97;4911932;28;123033;-81
2022/09/08 04:50:22;;;;;;;12.15;4.50;;;;;;;20.77;63.67;100744.72;4925389;28;120310;-81
2022/09/08 04:52:48;;;;;;;12.87;4.60;;;;;;;20.75;63.52;100736.88;4942897;28;120393;-81
2022/09/08 04:55:13;;;;;;;11.67;4.40;;;;;;;20.77;63.35;100731.53;4916174;28;123181;-82
2022/09/08 04:57:39;;;;;;;9.73;4.60;;;;;;;20.79;63.80;100740.13;4929179;28;121508;-81
2022/09/08 05:00:06;;;;;;;8.80;4.55;;;;;;;20.83;63.25;100737.84;4928479;28;120268;-81
2022/09/08 05:02:32;;;;;;;10.43;4.70;;;;;;;20.87;63.51;100745.16;4946034;28;120484;-81
2022/09/08 05:04:57;;;;;;;11.70;4.53;;;;;;;20.89;63.27;100742.59;4913675;28;120570;-81
2022/09/08 05:07:23;;;;;;;11.93;4.50;;;;;;;20.89;62.77;100734.22;4927562;28;122777;-81
2022/09/08 05:09:49;;;;;;;10.40;4.55;;;;;;;20.94;62.67;100741.78;4942422;28;121368;-81
2022/09/08 05:12:14;;;;;;;14.68;6.30;;;;;;;20.99;62.64;100743.75;4931669;28;122001;-81
2022/09/08 05:14:40;;;;;;;11.33;4.40;;;;;;;21.03;62.31;100738.66;4926446;28;123595;-80
2022/09/08 05:17:06;;;;;;;9.50;4.50;;;;;;;21.02;62.92;100732.31;4916340;28;121776;-81
2022/09/08 05:19:31;;;;;;;9.67;4.03;;;;;;;21.05;61.77;100728.47;4944464;28;120726;-81
2022/09/08 05:21:57;;;;;;;9.07;4.17;;;;;;;21.08;61.78;100723.91;4946510;28;121623;-81
2022/09/08 05:24:23;;;;;;;11.20;4.17;;;;;;;21.17;61.15;100726.34;4930430;28;121720;-81
2022/09/08 05:26:49;;;;;;;8.13;3.83;;;;;;;21.15;60.91;100718.50;4931729;28;123347;-81
2022/09/08 05:29:15;;;;;;;10.87;3.93;;;;;;;21.17;60.58;100709.63;4928129;28;120185;-80
2022/09/08 05:31:40;;;;;;;7.97;4.13;;;;;;;21.20;60.77;100719.72;4894898;28;121875;-82
2022/09/08 05:34:06;;;;;;;9.32;4.00;;;;;;;21.23;60.97;100718.66;4925998;28;120245;-82
2022/09/08 05:36:34;;;;;;;9.10;4.07;;;;;;;21.27;60.99;100723.97;4931742;28;120249;-81
2022/09/08 05:39:01;;;;;;;10.40;4.15;;;;;;;21.33;61.01;100716.31;4927713;28;120567;-82
2022/09/08 05:41:27;;;;;;;8.65;4.10;;;;;;;21.33;60.54;100708.72;4945671;28;120453;-82
2022/09/08 05:43:54;;;;;;;8.32;3.88;;;;;;;21.38;59.78;100707.13;4932049;28;122006;-80
2022/09/08 05:46:20;;;;;;;9.25;4.10;;;;;;;21.32;59.78;100698.06;4924171;28;122932;-82
2022/09/08 05:48:46;;;;;;;9.52;4.00;;;;;;;21.28;59.20;100687.19;4941602;28;120701;-82
2022/09/08 05:51:17;;;;;;;8.90;3.80;;;;;;;21.40;60.24;100694.16;4895956;28;121876;-81
2022/09/08 05:53:43;;;;;;;11.60;4.03;;;;;;;21.42;59.79;100682.47;4924271;28;120134;-82
2022/09/08 05:56:09;;;;;;;44.45;24.50;;;;;;;21.50;59.93;100696.56;4953027;28;120379;-81
2022/09/08 05:58:35;;;;;;;9.35;3.88;;;;;;;21.52;59.61;100683.59;4944936;28;119769;-82
2022/09/08 06:01:09;;;;;;;9.00;3.45;;;;;;;21.55;59.51;100693.72;4913470;28;120457;-82
2022/09/08 06:03:36;;;;;;;9.90;4.00;;;;;;;21.59;59.27;100685.06;4930539;28;121649;-81
2022/09/08 06:06:13;;;;;;;8.55;3.58;;;;;;;21.63;58.90;100694.63;4929517;28;120106;-82
2022/09/08 06:08:41;;;;;;;8.88;3.50;;;;;;;21.67;58.52;100694.34;4928101;28;121661;-82
2022/09/08 06:11:08;;;;;;;10.55;3.78;;;;;;;21.67;58.92;100692.28;4930339;28;120396;-82
2022/09/08 06:13:35;;;;;;;7.60;3.38;;;;;;;21.69;58.70;100695.31;4916839;28;120164;-81
2022/09/08 06:16:09;;;;;;;7.15;3.60;;;;;;;21.80;58.98;100700.00;4943090;28;120637;-81
2022/09/08 06:18:37;;;;;;;9.63;3.78;;;;;;;21.77;57.65;100678.72;4928815;28;120448;-82
2022/09/08 06:21:07;;;;;;;7.82;3.55;;;;;;;21.84;57.62;100685.75;4916234;28;122912;-81
2022/09/08 06:23:33;;;;;;;9.40;3.75;;;;;;;21.84;57.26;100685.75;4929473;28;119844;-81
2022/09/08 06:26:33;;;;;;;8.20;3.70;;;;;;;21.85;57.50;100679.63;4923191;28;121409;-81
2022/09/08 06:29:14;;;;;;;6.17;3.30;;;;;;;21.88;57.07;100681.34;4910489;28;120282;-81
2022/09/08 06:32:01;;;;;;;9.57;3.50;;;;;;;21.94;56.75;100689.66;4930922;28;123192;-82
2022/09/08 06:34:34;;;;;;;9.40;3.67;;;;;;;21.94;57.51;100689.66;4932369;28;121964;-82
2022/09/08 06:37:07;;;;;;;7.07;3.53;;;;;;;21.84;56.55;100675.31;4914880;28;121618;-82
2022/09/08 06:39:48;;;;;;;7.93;3.50;;;;;;;21.93;57.69;100680.50;4928896;28;120421;-81
2022/09/08 06:42:28;;;;;;;10.43;3.90;;;;;;;21.94;57.47;100684.06;4919956;28;121802;-80
2022/09/08 06:44:54;;;;;;;8.13;3.10;;;;;;;21.97;57.45;100683.00;4925564;28;120788;-80
2022/09/08 06:47:25;;;;;;;8.90;3.78;;;;;;;22.09;57.76;100683.63;4925884;28;121641;-81
2022/09/08 06:49:51;;;;;;;11.80;3.88;;;;;;;22.19;56.42;100681.94;4941413;28;120501;-80
2022/09/08 06:52:29;;;;;;;8.70;3.58;;;;;;;22.21;56.22;100668.94;4926867;28;120326;-81
2022/09/08 06:55:14;;;;;;;8.63;3.58;;;;;;;22.34;56.18;100685.00;4932379;28;120317;-80
2022/09/08 06:57:45;;;;;;;6.68;3.72;;;;;;;22.40;55.42;100671.69;4929744;28;120277;-81
2022/09/08 07:00:15;;;;;;;9.65;3.70;;;;;;;22.43;55.05;100656.66;4941961;28;119862;-82
2022/09/08 07:03:07;;;;;;;6.53;3.43;;;;;;;22.54;55.49;100667.66;4939878;28;123875;-82
2022/09/08 07:05:51;;;;;;;6.50;3.50;;;;;;;22.58;54.50;100664.53;4933448;28;120947;-82
2022/09/08 07:09:38;;;;;;;7.87;3.50;;;;;;;22.64;54.85;100670.78;4922519;28;121933;-81
2022/09/08 07:12:38;;;;;;;7.82;3.72;;;;;;;22.72;54.79;100673.72;4873018;28;120722;-81
2022/09/08 07:15:27;;;;;;;10.47;3.63;;;;;;;22.80;54.54;100678.13;4931570;28;120969;-82
2022/09/08 07:18:06;;;;;;;9.05;3.72;;;;;;;22.85;55.12;100674.50;4938456;28;121522;-81
2022/09/08 07:20:32;;;;;;;8.70;3.60;;;;;;;22.87;53.96;100666.31;4923776;28;120067;-81
2022/09/08 07:23:04;;;;;;;8.83;3.93;;;;;;;22.93;54.96;100672.56;4909889;28;120640;-81
2022/09/08 07:25:40;;;;;;;10.50;3.80;;;;;;;22.98;54.86;100676.56;4935213;28;120574;-82
2022/09/08 07:28:11;;;;;;;11.27;4.10;;;;;;;22.94;55.04;100671.28;4926131;28;120896;-81
2022/09/08 07:30:38;;;;;;;8.40;3.88;;;;;;;22.97;53.92;100663.88;4933011;28;122840;-81
2022/09/08 07:33:12;;;;;;;8.27;3.80;;;;;;;22.93;53.58;100680.19;4924373;28;120212;-81
2022/09/08 07:35:41;;;;;;;11.37;4.13;;;;;;;22.93;54.82;100680.94;4948178;28;120532;-82
2022/09/08 07:38:20;;;;;;;8.95;4.15;;;;;;;22.91;54.67;100688.38;4925538;28;120376;-81
2022/09/08 07:40:50;;;;;;;19.38;4.93;;;;;;;22.89;54.50;100685.38;4925683;28;120478;-81
2022/09/08 07:43:16;;;;;;;21.40;4.78;;;;;;;22.80;53.48;100677.38;4934223;28;121978;-80
2022/09/08 07:46:12;;;;;;;11.30;4.10;;;;;;;22.73;53.83;100686.41;4922143;28;120874;-82
2022/09/08 07:49:03;;;;;;;12.43;4.25;;;;;;;22.65;54.95;100687.03;4939376;28;121274;-81
2022/09/08 07:51:37;;;;;;;7.95;3.97;;;;;;;22.64;55.10;100687.56;4912068;28;121873;-82
2022/09/08 07:54:21;;;;;;;8.15;3.70;;;;;;;22.66;53.92;100685.72;4936362;28;120683;-81
2022/09/08 07:56:54;;;;;;;13.07;4.30;;;;;;;22.62;54.82;100678.94;4927629;28;121717;-81
2022/09/08 07:59:44;;;;;;;14.98;4.03;;;;;;;22.71;54.67;100688.97;4928457;28;123373;-82
2022/09/08 08:02:35;;;;;;;7.87;4.00;;;;;;;22.71;54.68;100688.97;4932295;28;120738;-81
2022/09/08 08:05:26;;;;;;;8.77;3.92;;;;;;;22.64;54.26;100670.78;4940726;28;121093;-81
2022/09/08 08:08:16;;;;;;;9.38;4.18;;;;;;;22.74;54.55;100685.13;4946045;28;120702;-81
2022/09/08 08:11:00;;;;;;;13.27;4.63;;;;;;;22.79;55.18;100687.81;4945220;28;120488;-81
2022/09/08 08:13:52;;;;;;;13.35;4.47;;;;;;;22.84;54.61;100695.38;4927990;28;124246;-81
2022/09/08 08:16:53;;;;;;;16.10;4.82;;;;;;;22.87;54.95;100693.53;4939405;28;123723;-81
2022/09/08 08:19:39;;;;;;;21.60;4.95;;;;;;;22.93;54.51;100691.38;4943682;28;120654;-81
2022/09/08 08:22:48;;;;;;;18.80;4.77;;;;;;;23.02;54.52;100693.78;4944099;28;120747;-81
2022/09/08 08:25:24;;;;;;;20.70;5.38;;;;;;;23.13;54.21;100699.16;4916082;28;121514;-82
2022/09/08 08:28:17;;;;;;;19.80;5.23;;;;;;;23.18;53.79;100694.72;4942877;28;121481;-81
2022/09/08 08:31:11;;;;;;;14.65;4.70;;;;;;;23.22;53.49;100684.00;4948631;28;123823;-81
2022/09/08 08:34:01;;;;;;;13.95;4.30;;;;;;;23.21;53.18;100672.03;4908014;28;120771;-81
2022/09/08 08:36:31;;;;;;;8.80;3.50;;;;;;;23.32;52.79;100681.50;4958492;28;120807;-81
2022/09/08 08:39:17;;;;;;;10.13;3.92;;;;;;;23.37;52.06;100689.03;4925806;28;121099;-81
2022/09/08 08:41:46;;;;;;;11.23;3.72;;;;;;;23.31;52.18;100685.59;4945537;28;120560;-81
2022/09/08 08:44:31;;;;;;;12.98;3.72;;;;;;;23.26;51.97;100690.75;4940614;28;122990;-80
2022/09/08 08:47:06;;;;;;;7.60;3.20;;;;;;;23.25;52.16;100682.91;4940045;28;120404;-82
2022/09/08 08:50:03;;;;;;;6.95;3.55;;;;;;;23.24;52.46;100675.81;4922653;28;122183;-81
2022/09/08 08:52:34;;;;;;;8.57;3.42;;;;;;;23.19;51.65;100680.22;4939421;28;120660;-81
2022/09/08 08:55:19;;;;;;;10.70;3.72;;;;;;;23.05;51.10;100680.75;4951633;28;121442;-81
2022/09/08 08:58:00;;;;;;;9.15;3.70;;;;;;;22.92;52.28;100684.28;4939341;28;120534;-81
2022/09/08 09:00:51;;;;;;;9.05;3.72;;;;;;;22.77;52.91;100681.25;4931423;28;120598;-81
2022/09/08 09:03:19;;;;;;;7.70;3.70;;;;;;;22.60;54.00;100682.28;4936201;28;121787;-81
2022/09/08 09:06:06;;;;;;;9.73;3.95;;;;;;;22.45;55.53;100673.63;4915474;28;122196;-81
2022/09/08 09:08:59;;;;;;;7.70;3.80;;;;;;;22.42;56.43;100683.09;4912139;28;121806;-81
2022/09/08 09:12:03;;;;;;;10.20;4.18;;;;;;;22.37;56.43;100669.97;4909200;28;123217;-81
2022/09/08 09:15:09;;;;;;;11.68;3.90;;;;;;;22.32;56.69;100674.38;4936833;28;120627;-81
2022/09/08 09:17:53;;;;;;;7.03;3.55;;;;;;;22.32;55.43;100666.00;4916291;28;122112;-81
2022/09/08 09:20:29;;;;;;;7.50;4.18;;;;;;;22.35;55.90;100664.91;4921098;28;121141;-81
2022/09/08 09:23:00;;;;;;;7.40;3.60;;;;;;;22.35;54.67;100666.97;4931564;28;122790;-81
2022/09/08 09:25:27;;;;;;;8.48;4.00;;;;;;;22.40;54.36;100663.31;4907913;28;120906;-80
2022/09/08 09:28:17;;;;;;;10.00;4.13;;;;;;;22.44;54.43;100666.53;4925549;28;120607;-81
2022/09/08 09:31:11;;;;;;;11.13;3.75;;;;;;;22.50;54.95;100672.06;4942602;28;120322;-81
2022/09/08 09:34:09;;;;;;;10.57;3.80;;;;;;;22.58;52.77;100672.94;4946222;28;120205;-81
2022/09/08 09:37:20;;;;;;;7.18;3.30;;;;;;;22.59;52.58;100661.22;4924588;28;120647;-81
2022/09/08 09:39:54;;;;;;;10.40;3.55;;;;;;;22.64;51.80;100662.41;4944562;28;120917;-81
2022/09/08 09:42:30;;;;;;;8.10;3.40;;;;;;;22.67;52.77;100664.88;4939654;28;121166;-81
2022/09/08 09:45:17;;;;;;;7.70;3.70;;;;;;;22.74;51.63;100651.56;4932348;28;121966;-81
2022/09/08 09:48:14;;;;;;;8.80;3.40;;;;;;;22.81;52.10;100660.09;4921539;28;120708;-81
2022/09/08 09:51:08;;;;;;;7.80;3.55;;;;;;;22.83;51.06;100637.94;4921049;28;120619;-80
2022/09/08 09:53:58;;;;;;;7.93;3.40;;;;;;;22.90;50.71;100640.06;4922635;28;121934;-80
2022/09/08 09:57:00;;;;;;;6.97;3.05;;;;;;;22.90;51.33;100636.53;4943900;28;121271;-80
2022/09/08 09:59:47;;;;;;;12.85;3.40;;;;;;;22.95;50.63;100639.25;4926107;28;122263;-80
2022/09/08 10:02:51;;;;;;;8.93;3.37;;;;;;;22.93;49.53;100629.84;4933335;28;120973;-81
2022/09/08 10:05:44;;;;;;;8.25;2.90;;;;;;;22.85;50.25;100638.13;4930596;28;122068;-80
2022/09/08 10:08:51;;;;;;;8.30;3.07;;;;;;;22.83;49.65;100631.59;4919550;28;121134;-82
2022/09/08 10:12:12;;;;;;;6.30;2.60;;;;;;;22.77;49.34;100630.91;4888496;28;120761;-81
2022/09/08 10:14:58;;;;;;;8.38;2.92;;;;;;;22.80;49.36;100613.81;4922517;28;122358;-80
2022/09/08 10:17:30;;;;;;;7.03;2.78;;;;;;;22.77;48.79;100622.53;4903749;28;121916;-81
2022/09/08 10:20:33;;;;;;;9.88;2.97;;;;;;;22.72;48.96;100618.56;4935375;28;120299;-80
2022/09/08 10:23:23;;;;;;;9.25;3.05;;;;;;;22.62;48.44;100611.88;4939720;28;119828;-80
2022/09/08 10:26:08;;;;;;;6.05;2.50;;;;;;;22.52;47.62;100617.13;4919518;28;120306;-80
2022/09/08 10:29:02;;;;;;;7.38;2.80;;;;;;;22.54;48.41;100616.59;4898639;28;122545;-80
2022/09/08 10:31:54;;;;;;;6.43;2.58;;;;;;;22.57;48.71;100604.34;4935458;28;121675;-80
2022/09/08 10:34:45;;;;;;;8.38;2.88;;;;;;;22.66;48.09;100603.91;4904819;28;120351;-81
2022/09/08 10:37:36;;;;;;;5.97;2.60;;;;;;;22.77;47.51;100608.53;4934843;28;121128;-80
2022/09/08 10:40:27;;;;;;;8.00;2.58;;;;;;;22.76;47.39;100612.63;4922195;28;122006;-80
2022/09/08 10:43:03;;;;;;;7.97;2.70;;;;;;;22.78;47.74;100602.41;4904531;28;120977;-80
2022/09/08 10:45:28;;;;;;;7.97;2.85;;;;;;;22.85;47.38;100601.78;4919181;28;122459;-79
2022/09/08 10:48:19;;;;;;;9.02;2.90;;;;;;;22.80;46.62;100604.66;4909322;28;123862;-79
2022/09/08 10:51:12;;;;;;;9.40;3.10;;;;;;;22.78;47.28;100602.41;4906592;28;121682;-79
2022/09/08 10:54:14;;;;;;;9.50;3.03;;;;;;;22.83;48.22;100609.97;4952979;28;122177;-80
2022/09/08 10:56:40;;;;;;;7.72;2.97;;;;;;;22.83;47.74;100612.00;4936985;28;120928;-80
2022/09/08 10:59:17;;;;;;;9.55;3.30;;;;;;;22.82;47.17;100607.72;4907926;28;121686;-80
2022/09/08 11:02:15;;;;;;;8.73;2.70;;;;;;;22.74;47.81;100609.63;4926933;28;122016;-79
2022/09/08 11:04:40;;;;;;;6.13;2.72;;;;;;;22.67;47.19;100608.94;4907494;28;120260;-80
2022/09/08 11:07:32;;;;;;;10.27;3.10;;;;;;;22.55;47.72;100602.06;4925300;28;121060;-80
2022/09/08 11:10:01;;;;;;;7.50;2.80;;;;;;;22.54;48.71;100603.38;4942460;28;120893;-80
2022/09/08 11:12:32;;;;;;;7.00;2.70;;;;;;;22.53;48.17;100603.91;4926198;28;121810;-80
2022/09/08 11:15:20;;;;;;;5.60;2.50;;;;;;;22.50;49.48;100610.56;4940510;28;123978;-80
2022/09/08 11:17:50;;;;;;;8.48;2.75;;;;;;;22.45;48.69;100600.97;4941668;28;120718;-80
2022/09/08 11:20:43;;;;;;;7.70;3.03;;;;;;;22.43;48.88;100606.34;4938136;28;120641;-80
2022/09/08 11:23:08;;;;;;;8.13;3.00;;;;;;;22.31;47.73;100607.84;4926510;28;122492;-80
2022/09/08 11:25:45;;;;;;;8.57;3.20;;;;;;;22.25;49.32;100621.91;4944396;28;120506;-80
2022/09/08 11:28:32;;;;;;;7.85;3.13;;;;;;;22.18;49.74;100619.72;4941294;28;121991;-80
2022/09/08 11:31:49;;;;;;;7.10;2.90;;;;;;;21.99;50.98;100616.94;4941827;28;121076;-80
2022/09/08 11:34:20;;;;;;;9.23;3.70;;;;;;;21.95;55.37;100624.13;4946566;28;120315;-80
2022/09/08 11:37:05;;;;;;;11.18;3.83;;;;;;;21.69;56.74;100624.78;4943212;28;122484;-80
2022/09/08 11:40:00;;;;;;;11.00;4.80;;;;;;;21.32;59.27;100622.75;4958671;28;120420;-80
2022/09/08 11:42:31;;;;;;;12.32;5.00;;;;;;;20.99;61.17;100613.47;4927935;28;120945;-81
2022/09/08 11:45:14;;;;;;;11.63;5.20;;;;;;;20.64;61.76;100600.44;4940583;28;120153;-80
2022/09/08 11:47:58;;;;;;;12.50;5.95;;;;;;;20.36;62.60;100599.91;4925715;28;120200;-80
2022/09/08 11:50:27;;;;;;;15.00;6.30;;;;;;;20.02;63.08;100589.03;4941935;28;120443;-81
2022/09/08 11:53:02;;;;;;;27.77;9.38;;;;;;;19.69;65.55;100590.06;4939463;28;121326;-80
2022/09/08 11:55:50;;;;;;;24.38;9.35;;;;;;;19.33;66.18;100580.88;4955918;28;121826;-80